createdAt,value
2019-05-15T00:00:20.442Z,2.17
2019-05-15T00:00:53.137Z,2.80
2019-05-15T00:01:25.782Z,2.25
2019-05-15T00:01:58.514Z,2.50
2019-05-15T00:02:31.263Z,2.30
2019-05-15T00:03:04.339Z,2.65
2019-05-15T00:03:39.165Z,2.40
2019-05-15T00:04:11.403Z,2.58
2019-05-15T00:04:44.033Z,2.10
2019-05-15T00:05:18.841Z,2.20
2019-05-15T00:05:51.579Z,2.52
2019-05-15T00:06:24.677Z,2.35
2019-05-15T00:06:58.292Z,2.20
2019-05-15T00:07:31.502Z,2.95
2019-05-15T00:08:04.183Z,2.50
2019-05-15T00:08:38.694Z,2.37
2019-05-15T00:09:11.552Z,2.62
2019-05-15T00:09:51.224Z,2.80
2019-05-15T00:10:24.299Z,2.40
2019-05-15T00:10:58.695Z,2.42
2019-05-15T00:11:31.925Z,2.33
2019-05-15T00:12:04.567Z,2.47
2019-05-15T00:12:39.381Z,2.60
2019-05-15T00:13:12.034Z,2.33
2019-05-15T00:13:45.147Z,2.62
2019-05-15T00:14:18.348Z,2.62
2019-05-15T00:14:51.049Z,2.60
2019-05-15T00:15:23.692Z,2.35
2019-05-15T00:15:58.864Z,2.05
2019-05-15T00:16:31.074Z,2.47
2019-05-15T00:17:03.753Z,2.50
2019-05-15T00:17:39.103Z,2.27
2019-05-15T00:18:11.554Z,2.58
2019-05-15T00:18:44.641Z,2.45
2019-05-15T00:19:18.790Z,2.52
2019-05-15T00:19:51.599Z,2.60
2019-05-15T00:20:24.544Z,2.52
2019-05-15T00:20:59.491Z,2.55
2019-05-15T00:21:31.635Z,2.50
2019-05-15T00:22:04.450Z,2.20
2019-05-15T00:22:38.848Z,2.30
2019-05-15T00:23:11.921Z,2.50
2019-05-15T00:23:44.571Z,2.65
2019-05-15T00:24:17.903Z,2.87
2019-05-15T00:24:50.654Z,2.52
2019-05-15T00:25:23.308Z,2.25
2019-05-15T00:25:58.265Z,2.42
2019-05-15T00:26:30.348Z,2.65
2019-05-15T00:27:03.317Z,2.60
2019-05-15T00:27:38.428Z,2.40
2019-05-15T00:28:11.256Z,2.70
2019-05-15T00:28:43.949Z,3.12
2019-05-15T00:29:19.594Z,2.50
2019-05-15T00:29:51.357Z,2.58
2019-05-15T00:30:24.027Z,2.65
2019-05-15T00:30:58.293Z,2.52
2019-05-15T00:31:31.404Z,2.45
2019-05-15T00:32:04.044Z,2.77
2019-05-15T00:32:39.007Z,2.37
2019-05-15T00:33:11.282Z,2.30
2019-05-15T00:33:43.977Z,3.20
2019-05-15T00:34:18.317Z,2.60
2019-05-15T00:34:51.208Z,2.45
2019-05-15T00:35:23.850Z,2.87
2019-05-15T00:35:58.849Z,2.30
2019-05-15T00:36:31.267Z,2.12
2019-05-15T00:37:03.889Z,2.35
2019-05-15T00:37:38.732Z,2.70
2019-05-15T00:38:11.375Z,2.67
2019-05-15T00:38:44.352Z,2.67
2019-05-15T00:39:18.998Z,2.80
2019-05-15T00:39:51.825Z,2.70
2019-05-15T00:40:24.541Z,2.00
2019-05-15T00:40:58.469Z,2.60
2019-05-15T00:41:31.380Z,2.62
2019-05-15T00:42:04.335Z,2.40
2019-05-15T00:42:38.337Z,2.72
2019-05-15T00:43:11.376Z,2.25
2019-05-15T00:43:45.098Z,2.67
2019-05-15T00:44:18.671Z,1.92
2019-05-15T00:44:51.967Z,2.30
2019-05-15T00:45:24.608Z,2.70
2019-05-15T00:45:58.572Z,2.25
2019-05-15T00:46:31.328Z,2.37
2019-05-15T00:47:04.781Z,2.25
2019-05-15T00:47:39.728Z,2.58
2019-05-15T00:48:12.880Z,2.90
2019-05-15T00:48:45.522Z,2.65
2019-05-15T00:49:18.926Z,3.12
2019-05-15T00:49:51.808Z,2.65
2019-05-15T00:50:24.904Z,1.95
2019-05-15T00:50:59.037Z,2.33
2019-05-15T00:51:31.751Z,2.30
2019-05-15T00:52:04.422Z,2.70
2019-05-15T00:52:39.117Z,2.58
2019-05-15T00:53:11.940Z,2.35
2019-05-15T00:53:44.984Z,2.50
2019-05-15T00:54:19.215Z,2.12
2019-05-15T00:54:51.987Z,2.65
2019-05-15T00:55:25.021Z,3.05
2019-05-15T00:55:58.169Z,2.10
2019-05-15T00:56:30.899Z,2.60
2019-05-15T00:57:03.552Z,2.12
2019-05-15T00:57:36.182Z,2.72
2019-05-15T00:58:09.218Z,2.10
2019-05-15T00:58:41.844Z,2.40
2019-05-15T00:59:24.064Z,2.60
2019-05-15T00:59:49.254Z,2.20
2019-05-15T01:00:42.249Z,2.40
2019-05-15T01:01:15.271Z,2.20
2019-05-15T01:01:48.737Z,2.33
2019-05-15T01:02:21.656Z,2.47
2019-05-15T01:02:54.311Z,2.67
2019-05-15T01:03:27.919Z,2.08
2019-05-15T01:04:00.711Z,2.58
2019-05-15T01:04:33.367Z,2.22
2019-05-15T01:05:08.097Z,2.42
2019-05-15T01:05:41.297Z,2.12
2019-05-15T01:06:14.332Z,2.67
2019-05-15T01:06:48.757Z,2.45
2019-05-15T01:07:22.087Z,2.50
2019-05-15T01:07:54.744Z,2.85
2019-05-15T01:08:28.433Z,2.20
2019-05-15T01:09:01.258Z,2.37
2019-05-15T01:09:34.268Z,2.40
2019-05-15T01:10:09.727Z,2.30
2019-05-15T01:10:42.593Z,2.27
2019-05-15T01:11:15.211Z,2.30
2019-05-15T01:11:48.793Z,2.72
2019-05-15T01:12:21.960Z,2.67
2019-05-15T01:12:54.931Z,2.70
2019-05-15T01:13:28.205Z,2.15
2019-05-15T01:14:00.999Z,2.55
2019-05-15T01:14:33.804Z,2.10
2019-05-15T01:15:09.224Z,2.42
2019-05-15T01:15:42.102Z,2.70
2019-05-15T01:16:15.160Z,2.10
2019-05-15T01:16:49.101Z,2.75
2019-05-15T01:17:21.830Z,2.40
2019-05-15T01:17:54.904Z,2.35
2019-05-15T01:18:29.220Z,2.12
2019-05-15T01:19:02.025Z,2.50
2019-05-15T01:19:34.877Z,2.12
2019-05-15T01:20:08.448Z,2.40
2019-05-15T01:20:41.700Z,3.05
2019-05-15T01:21:14.676Z,2.35
2019-05-15T01:21:48.127Z,2.75
2019-05-15T01:22:21.336Z,2.60
2019-05-15T01:22:54.789Z,2.67
2019-05-15T01:23:28.222Z,2.77
2019-05-15T01:24:01.111Z,2.55
2019-05-15T01:24:34.119Z,2.25
2019-05-15T01:25:08.695Z,2.30
2019-05-15T01:25:41.696Z,2.10
2019-05-15T01:26:14.345Z,2.40
2019-05-15T01:26:49.036Z,2.00
2019-05-15T01:27:21.747Z,2.60
2019-05-15T01:27:54.372Z,2.30
2019-05-15T01:28:28.913Z,2.05
2019-05-15T01:29:01.815Z,2.17
2019-05-15T01:29:41.929Z,2.45
2019-05-15T01:30:09.551Z,2.17
2019-05-15T01:30:42.627Z,2.22
2019-05-15T01:31:18.912Z,2.70
2019-05-15T01:31:51.683Z,1.95
2019-05-15T01:32:24.652Z,2.30
2019-05-15T01:32:59.215Z,2.33
2019-05-15T01:33:31.741Z,3.00
2019-05-15T01:34:04.425Z,1.85
2019-05-15T01:34:38.408Z,2.10
2019-05-15T01:35:11.348Z,2.25
2019-05-15T01:35:43.970Z,2.70
2019-05-15T01:36:19.106Z,2.72
2019-05-15T01:36:51.790Z,2.10
2019-05-15T01:37:24.779Z,2.00
2019-05-15T01:37:58.599Z,2.35
2019-05-15T01:38:31.866Z,2.22
2019-05-15T01:39:07.846Z,2.47
2019-05-15T01:39:40.129Z,2.70
2019-05-15T01:40:13.100Z,2.10
2019-05-15T01:40:48.529Z,2.27
2019-05-15T01:41:21.291Z,2.45
2019-05-15T01:41:54.299Z,2.47
2019-05-15T01:42:27.985Z,2.20
2019-05-15T01:43:01.833Z,2.60
2019-05-15T01:43:34.840Z,2.20
2019-05-15T01:44:08.804Z,2.50
2019-05-15T01:44:42.343Z,2.10
2019-05-15T01:45:16.025Z,2.55
2019-05-15T01:45:48.646Z,2.65
2019-05-15T01:46:21.283Z,2.22
2019-05-15T01:46:54.313Z,2.22
2019-05-15T01:47:28.185Z,2.60
2019-05-15T01:48:01.160Z,2.05
2019-05-15T01:48:34.318Z,2.15
2019-05-15T01:49:08.054Z,2.30
2019-05-15T01:49:41.394Z,2.25
2019-05-15T01:50:14.527Z,3.20
2019-05-15T01:50:49.218Z,2.30
2019-05-15T01:51:21.657Z,2.80
2019-05-15T01:51:54.321Z,2.25
2019-05-15T01:52:27.949Z,2.10
2019-05-15T01:53:01.107Z,3.08
2019-05-15T01:53:33.755Z,2.00
2019-05-15T01:54:06.420Z,2.60
2019-05-15T01:54:39.688Z,2.67
2019-05-15T01:55:12.818Z,2.42
2019-05-15T01:55:45.447Z,2.12
2019-05-15T01:56:18.798Z,2.60
2019-05-15T01:56:51.976Z,2.42
2019-05-15T01:57:24.610Z,2.47
2019-05-15T01:57:58.148Z,2.37
2019-05-15T01:58:30.932Z,2.40
2019-05-15T01:59:03.939Z,1.98
2019-05-15T01:59:40.184Z,2.50
2019-05-15T02:00:12.651Z,2.30
2019-05-15T02:00:45.285Z,2.55
2019-05-15T02:01:19.113Z,2.60
2019-05-15T02:01:52.578Z,2.17
2019-05-15T02:02:25.231Z,3.02
2019-05-15T02:02:58.767Z,2.22
2019-05-15T02:03:31.928Z,2.72
2019-05-15T02:04:05.364Z,2.08
2019-05-15T02:04:39.363Z,2.42
2019-05-15T02:05:12.590Z,2.80
2019-05-15T02:05:47.917Z,2.10
2019-05-15T02:06:20.445Z,2.40
2019-05-15T02:06:53.068Z,2.20
2019-05-15T02:07:27.969Z,2.62
2019-05-15T02:08:00.214Z,2.70
2019-05-15T02:08:32.863Z,2.40
2019-05-15T02:09:08.311Z,2.58
2019-05-15T02:09:41.426Z,2.45
2019-05-15T02:10:14.300Z,2.50
2019-05-15T02:10:49.157Z,2.65
2019-05-15T02:11:21.427Z,2.62
2019-05-15T02:11:54.091Z,2.40
2019-05-15T02:12:28.578Z,2.37
2019-05-15T02:13:01.242Z,2.25
2019-05-15T02:13:33.908Z,2.45
2019-05-15T02:14:08.255Z,2.55
2019-05-15T02:14:41.479Z,2.55
2019-05-15T02:15:14.244Z,2.40
2019-05-15T02:15:48.307Z,2.50
2019-05-15T02:16:21.151Z,2.00
2019-05-15T02:16:53.781Z,2.70
2019-05-15T02:17:28.312Z,2.10
2019-05-15T02:18:01.409Z,2.75
2019-05-15T02:18:34.106Z,2.15
2019-05-15T02:19:08.965Z,2.22
2019-05-15T02:19:41.514Z,2.85
2019-05-15T02:20:14.382Z,2.70
2019-05-15T02:20:49.311Z,2.30
2019-05-15T02:21:22.494Z,2.33
2019-05-15T02:21:55.513Z,2.05
2019-05-15T02:22:28.405Z,2.30
2019-05-15T02:23:01.688Z,2.67
2019-05-15T02:23:34.692Z,2.45
2019-05-15T02:24:08.046Z,2.30
2019-05-15T02:24:41.098Z,2.30
2019-05-15T02:25:14.260Z,2.00
2019-05-15T02:25:48.131Z,2.58
2019-05-15T02:26:21.296Z,2.45
2019-05-15T02:26:54.248Z,2.30
2019-05-15T02:27:28.769Z,2.50
2019-05-15T02:28:01.746Z,2.35
2019-05-15T02:28:34.380Z,2.90
2019-05-15T02:29:07.829Z,2.42
2019-05-15T02:29:41.567Z,2.75
2019-05-15T02:30:27.410Z,2.55
2019-05-15T02:30:50.405Z,2.77
2019-05-15T02:31:23.809Z,2.08
2019-05-15T02:31:59.226Z,2.25
2019-05-15T02:32:31.229Z,2.47
2019-05-15T02:33:04.563Z,2.87
2019-05-15T02:33:40.097Z,2.27
2019-05-15T02:34:11.664Z,2.75
2019-05-15T02:34:44.726Z,2.62
2019-05-15T02:35:18.511Z,2.30
2019-05-15T02:35:51.356Z,2.15
2019-05-15T02:36:24.004Z,2.20
2019-05-15T02:36:59.858Z,2.00
2019-05-15T02:37:31.100Z,2.83
2019-05-15T02:38:04.035Z,2.20
2019-05-15T02:38:40.452Z,2.70
2019-05-15T02:39:11.500Z,2.70
2019-05-15T02:39:44.129Z,2.65
2019-05-15T02:40:19.187Z,2.65
2019-05-15T02:40:51.768Z,2.50
2019-05-15T02:41:24.499Z,2.50
2019-05-15T02:41:59.517Z,2.75
2019-05-15T02:42:32.082Z,2.30
2019-05-15T02:43:04.763Z,2.50
2019-05-15T02:43:39.116Z,2.60
2019-05-15T02:44:11.882Z,2.90
2019-05-15T02:44:44.731Z,2.47
2019-05-15T02:45:19.558Z,2.30
2019-05-15T02:45:52.185Z,2.08
2019-05-15T02:46:25.224Z,2.85
2019-05-15T02:46:58.780Z,2.45
2019-05-15T02:47:31.730Z,1.90
2019-05-15T02:48:04.777Z,2.45
2019-05-15T02:48:40.609Z,2.20
2019-05-15T02:49:12.330Z,2.35
2019-05-15T02:49:44.990Z,2.65
2019-05-15T02:50:20.424Z,2.60
2019-05-15T02:50:53.172Z,2.25
2019-05-15T02:51:26.222Z,2.27
2019-05-15T02:52:01.004Z,2.70
2019-05-15T02:52:33.621Z,3.08
2019-05-15T02:53:09.470Z,2.40
2019-05-15T02:53:40.697Z,2.70
2019-05-15T02:54:13.343Z,2.62
2019-05-15T02:54:49.527Z,2.85
2019-05-15T02:55:20.611Z,2.95
2019-05-15T02:55:53.585Z,3.12
2019-05-15T02:56:29.095Z,2.22
2019-05-15T02:57:00.697Z,2.40
2019-05-15T02:57:33.344Z,2.55
2019-05-15T02:58:05.981Z,2.35
2019-05-15T02:58:39.822Z,2.33
2019-05-15T02:59:12.776Z,2.27
2019-05-15T02:59:45.420Z,2.27
2019-05-15T03:00:35.952Z,1.90
2019-05-15T03:00:53.557Z,2.40
2019-05-15T03:01:28.583Z,2.60
2019-05-15T03:02:01.252Z,2.62
2019-05-15T03:02:34.298Z,2.25
2019-05-15T03:03:09.467Z,2.27
2019-05-15T03:03:41.898Z,2.00
2019-05-15T03:04:14.555Z,2.25
2019-05-15T03:04:48.646Z,2.00
2019-05-15T03:05:21.404Z,2.15
2019-05-15T03:05:54.234Z,2.22
2019-05-15T03:06:29.551Z,2.33
2019-05-15T03:07:01.691Z,2.45
2019-05-15T03:07:35.187Z,1.85
2019-05-15T03:08:09.633Z,2.00
2019-05-15T03:08:42.958Z,2.17
2019-05-15T03:09:18.518Z,2.55
2019-05-15T03:09:50.483Z,1.92
2019-05-15T03:10:23.154Z,1.92
2019-05-15T03:10:59.061Z,2.10
2019-05-15T03:11:30.949Z,2.67
2019-05-15T03:12:03.727Z,2.20
2019-05-15T03:12:40.151Z,2.60
2019-05-15T03:13:11.369Z,2.15
2019-05-15T03:13:44.017Z,2.60
2019-05-15T03:14:16.683Z,2.50
2019-05-15T03:14:50.033Z,2.10
2019-05-15T03:15:23.164Z,2.35
2019-05-15T03:15:59.477Z,2.20
2019-05-15T03:16:31.269Z,2.42
2019-05-15T03:17:04.309Z,2.33
2019-05-15T03:17:40.259Z,2.15
2019-05-15T03:18:11.416Z,2.70
2019-05-15T03:18:44.117Z,2.40
2019-05-15T03:19:19.235Z,2.12
2019-05-15T03:19:51.227Z,2.22
2019-05-15T03:20:24.551Z,2.67
2019-05-15T03:21:00.341Z,1.92
2019-05-15T03:21:32.306Z,2.22
2019-05-15T03:22:04.966Z,3.10
2019-05-15T03:22:40.031Z,2.33
2019-05-15T03:23:12.219Z,2.60
2019-05-15T03:23:45.223Z,1.98
2019-05-15T03:24:19.428Z,2.62
2019-05-15T03:24:52.294Z,2.40
2019-05-15T03:25:24.958Z,2.30
2019-05-15T03:26:03.003Z,2.30
2019-05-15T03:26:32.474Z,2.40
2019-05-15T03:27:05.110Z,2.27
2019-05-15T03:27:39.472Z,2.70
2019-05-15T03:28:12.988Z,2.02
2019-05-15T03:28:49.372Z,2.42
2019-05-15T03:29:21.409Z,2.20
2019-05-15T03:29:54.132Z,2.47
2019-05-15T03:30:31.898Z,2.33
2019-05-15T03:31:22.336Z,2.30
2019-05-15T03:31:57.766Z,2.25
2019-05-15T03:32:25.279Z,2.40
2019-05-15T03:32:53.922Z,2.37
2019-05-15T03:33:27.356Z,2.10
2019-05-15T03:33:55.347Z,2.62
2019-05-15T03:34:36.814Z,2.22
2019-05-15T03:35:05.370Z,2.10
2019-05-15T03:35:42.968Z,2.50
2019-05-15T03:36:13.651Z,2.20
2019-05-15T03:36:52.368Z,2.00
2019-05-15T03:37:22.643Z,2.40
2019-05-15T03:37:55.952Z,2.20
2019-05-15T03:38:29.641Z,2.60
2019-05-15T03:39:05.440Z,1.80
2019-05-15T03:39:39.328Z,2.42
2019-05-15T03:40:12.807Z,2.20
2019-05-15T03:40:45.840Z,2.25
2019-05-15T03:41:19.445Z,2.12
2019-05-15T03:41:52.555Z,1.85
2019-05-15T03:42:25.657Z,2.00
2019-05-15T03:42:59.263Z,1.98
2019-05-15T03:43:32.283Z,2.22
2019-05-15T03:44:05.264Z,2.50
2019-05-15T03:44:39.337Z,2.10
2019-05-15T03:45:12.329Z,2.92
2019-05-15T03:45:45.309Z,1.95
2019-05-15T03:46:19.972Z,2.33
2019-05-15T03:46:53.280Z,2.90
2019-05-15T03:47:25.940Z,2.08
2019-05-15T03:47:59.606Z,1.80
2019-05-15T03:48:32.745Z,2.02
2019-05-15T03:49:08.457Z,2.00
2019-05-15T03:49:40.245Z,2.30
2019-05-15T03:50:13.703Z,2.02
2019-05-15T03:50:48.860Z,2.45
2019-05-15T03:51:21.340Z,2.02
2019-05-15T03:51:53.989Z,2.50
2019-05-15T03:52:29.483Z,2.00
2019-05-15T03:53:01.441Z,2.20
2019-05-15T03:53:34.506Z,2.00
2019-05-15T03:54:09.418Z,2.30
2019-05-15T03:54:42.155Z,2.50
2019-05-15T03:55:14.809Z,1.90
2019-05-15T03:55:48.999Z,1.90
2019-05-15T03:56:21.952Z,1.75
2019-05-15T03:56:54.613Z,2.30
2019-05-15T03:57:30.434Z,2.25
2019-05-15T03:58:02.711Z,2.20
2019-05-15T03:58:35.675Z,2.42
2019-05-15T03:59:09.334Z,2.40
2019-05-15T03:59:42.392Z,2.12
2019-05-15T04:00:15.356Z,2.33
2019-05-15T04:00:49.807Z,2.60
2019-05-15T04:01:34.014Z,2.02
2019-05-15T04:01:59.983Z,1.80
2019-05-15T04:02:31.810Z,2.25
2019-05-15T04:03:04.447Z,2.20
2019-05-15T04:03:38.967Z,2.17
2019-05-15T04:04:11.865Z,2.05
2019-05-15T04:04:44.546Z,2.35
2019-05-15T04:05:19.901Z,2.00
2019-05-15T04:05:52.596Z,2.20
2019-05-15T04:06:25.241Z,2.60
2019-05-15T04:07:00.693Z,1.98
2019-05-15T04:07:33.388Z,2.20
2019-05-15T04:08:06.181Z,2.37
2019-05-15T04:08:42.392Z,2.47
2019-05-15T04:09:15.060Z,2.00
2019-05-15T04:09:49.398Z,2.35
2019-05-15T04:10:22.184Z,2.60
2019-05-15T04:10:54.850Z,2.10
2019-05-15T04:11:29.369Z,2.17
2019-05-15T04:12:02.500Z,2.12
2019-05-15T04:12:39.820Z,1.90
2019-05-15T04:13:11.483Z,2.08
2019-05-15T04:13:44.661Z,1.90
2019-05-15T04:14:19.319Z,1.52
2019-05-15T04:14:51.769Z,1.85
2019-05-15T04:15:24.800Z,2.35
2019-05-15T04:15:59.353Z,2.15
2019-05-15T04:16:31.895Z,2.30
2019-05-15T04:17:04.551Z,2.00
2019-05-15T04:17:40.120Z,1.90
2019-05-15T04:18:12.183Z,2.20
2019-05-15T04:18:44.846Z,2.00
2019-05-15T04:19:19.114Z,1.82
2019-05-15T04:19:52.091Z,2.05
2019-05-15T04:20:24.744Z,2.20
2019-05-15T04:21:00.201Z,2.00
2019-05-15T04:21:32.322Z,2.17
2019-05-15T04:22:05.346Z,2.83
2019-05-15T04:22:39.993Z,2.20
2019-05-15T04:23:19.106Z,2.40
2019-05-15T04:23:53.844Z,2.15
2019-05-15T04:24:30.130Z,2.47
2019-05-15T04:25:03.496Z,2.12
2019-05-15T04:25:39.132Z,2.05
2019-05-15T04:26:13.177Z,1.55
2019-05-15T04:26:48.703Z,2.42
2019-05-15T04:27:21.982Z,2.00
2019-05-15T04:27:58.876Z,1.55
2019-05-15T04:28:32.683Z,2.00
2019-05-15T04:29:09.465Z,2.55
2019-05-15T04:29:40.541Z,2.05
2019-05-15T04:30:13.887Z,1.90
2019-05-15T04:30:49.314Z,2.05
2019-05-15T04:31:21.348Z,1.80
2019-05-15T04:32:01.016Z,2.10
2019-05-15T04:32:29.072Z,2.05
2019-05-15T04:33:02.279Z,2.17
2019-05-15T04:33:35.708Z,2.17
2019-05-15T04:34:09.166Z,1.95
2019-05-15T04:34:42.016Z,1.85
2019-05-15T04:35:14.770Z,2.55
2019-05-15T04:35:49.658Z,2.08
2019-05-15T04:36:21.894Z,2.40
2019-05-15T04:36:54.875Z,2.10
2019-05-15T04:37:29.874Z,1.90
2019-05-15T04:38:02.708Z,1.90
2019-05-15T04:38:39.027Z,1.85
2019-05-15T04:39:10.201Z,2.27
2019-05-15T04:39:43.572Z,1.90
2019-05-15T04:40:19.167Z,1.80
2019-05-15T04:40:50.706Z,1.85
2019-05-15T04:41:23.376Z,2.20
2019-05-15T04:41:58.868Z,1.60
2019-05-15T04:42:30.485Z,1.85
2019-05-15T04:43:03.135Z,2.20
2019-05-15T04:43:41.331Z,1.92
2019-05-15T04:44:10.588Z,2.08
2019-05-15T04:44:44.114Z,1.95
2019-05-15T04:45:19.425Z,1.50
2019-05-15T04:45:51.324Z,1.98
2019-05-15T04:46:24.336Z,2.00
2019-05-15T04:46:59.465Z,1.87
2019-05-15T04:47:31.830Z,1.55
2019-05-15T04:48:05.235Z,2.10
2019-05-15T04:48:39.881Z,1.80
2019-05-15T04:49:12.679Z,1.82
2019-05-15T04:49:45.325Z,1.67
2019-05-15T04:50:19.303Z,1.85
2019-05-15T04:50:52.180Z,1.50
2019-05-15T04:51:24.823Z,1.40
2019-05-15T04:52:03.107Z,1.60
2019-05-15T04:52:32.560Z,1.80
2019-05-15T04:53:05.573Z,1.70
2019-05-15T04:53:39.375Z,2.08
2019-05-15T04:54:12.756Z,1.60
2019-05-15T04:54:49.145Z,1.67
2019-05-15T04:55:20.701Z,1.80
2019-05-15T04:55:53.414Z,2.10
2019-05-15T04:56:29.135Z,1.20
2019-05-15T04:57:00.551Z,1.67
2019-05-15T04:57:34.357Z,1.72
2019-05-15T04:58:10.047Z,1.30
2019-05-15T04:58:42.528Z,1.52
2019-05-15T04:59:15.515Z,1.85
2019-05-15T04:59:49.687Z,1.60
2019-05-15T05:00:49.590Z,1.80
2019-05-15T05:01:22.051Z,1.70
2019-05-15T05:02:13.005Z,1.60
2019-05-15T05:02:32.310Z,1.90
2019-05-15T05:03:03.735Z,1.70
2019-05-15T05:03:39.288Z,1.40
2019-05-15T05:04:10.808Z,1.65
2019-05-15T05:04:43.462Z,1.62
2019-05-15T05:05:18.774Z,1.98
2019-05-15T05:05:50.664Z,1.40
2019-05-15T05:06:23.951Z,1.98
2019-05-15T05:06:58.661Z,1.80
2019-05-15T05:07:31.347Z,1.52
2019-05-15T05:08:04.014Z,1.57
2019-05-15T05:08:39.751Z,1.72
2019-05-15T05:09:11.547Z,1.50
2019-05-15T05:09:44.587Z,1.50
2019-05-15T05:10:19.599Z,1.75
2019-05-15T05:10:51.936Z,1.70
2019-05-15T05:11:24.759Z,1.50
2019-05-15T05:11:58.228Z,1.70
2019-05-15T05:12:31.365Z,1.50
2019-05-15T05:13:04.002Z,1.27
2019-05-15T05:13:38.963Z,1.37
2019-05-15T05:14:11.111Z,1.40
2019-05-15T05:14:44.447Z,1.70
2019-05-15T05:15:18.978Z,1.30
2019-05-15T05:15:52.186Z,1.60
2019-05-15T05:16:25.220Z,1.80
2019-05-15T05:16:59.289Z,1.62
2019-05-15T05:17:32.380Z,1.45
2019-05-15T05:18:05.049Z,1.60
2019-05-15T05:18:40.965Z,1.75
2019-05-15T05:19:12.172Z,1.57
2019-05-15T05:19:44.818Z,1.77
2019-05-15T05:20:17.968Z,1.70
2019-05-15T05:20:50.975Z,1.37
2019-05-15T05:21:23.644Z,1.40
2019-05-15T05:21:58.449Z,1.25
2019-05-15T05:22:30.797Z,1.82
2019-05-15T05:23:03.920Z,1.32
2019-05-15T05:23:37.754Z,1.27
2019-05-15T05:24:10.841Z,1.70
2019-05-15T05:24:43.876Z,1.25
2019-05-15T05:25:18.291Z,1.65
2019-05-15T05:25:50.997Z,1.45
2019-05-15T05:26:23.641Z,1.52
2019-05-15T05:26:58.059Z,1.50
2019-05-15T05:27:31.032Z,1.50
2019-05-15T05:28:03.825Z,1.47
2019-05-15T05:28:37.922Z,1.50
2019-05-15T05:29:11.262Z,1.55
2019-05-15T05:29:44.202Z,1.45
2019-05-15T05:30:18.908Z,1.67
2019-05-15T05:30:51.369Z,1.20
2019-05-15T05:31:24.439Z,1.80
2019-05-15T05:31:58.600Z,1.65
2019-05-15T05:32:35.018Z,1.30
2019-05-15T05:33:05.796Z,1.57
2019-05-15T05:33:38.994Z,1.50
2019-05-15T05:34:11.746Z,1.50
2019-05-15T05:34:44.412Z,1.40
2019-05-15T05:35:18.508Z,1.60
2019-05-15T05:35:51.261Z,1.47
2019-05-15T05:36:24.279Z,1.50
2019-05-15T05:36:58.891Z,1.70
2019-05-15T05:37:32.923Z,1.40
2019-05-15T05:38:09.265Z,1.60
2019-05-15T05:38:42.048Z,1.37
2019-05-15T05:39:17.650Z,1.20
2019-05-15T05:39:49.442Z,1.20
2019-05-15T05:40:22.386Z,1.15
2019-05-15T05:40:55.031Z,1.27
2019-05-15T05:41:28.172Z,1.47
2019-05-15T05:42:00.870Z,1.60
2019-05-15T05:42:33.844Z,1.47
2019-05-15T05:43:09.302Z,1.50
2019-05-15T05:43:41.026Z,1.50
2019-05-15T05:44:13.728Z,1.55
2019-05-15T05:44:48.753Z,1.40
2019-05-15T05:45:21.387Z,1.30
2019-05-15T05:45:54.020Z,1.20
2019-05-15T05:46:28.075Z,1.10
2019-05-15T05:47:00.717Z,1.42
2019-05-15T05:47:33.374Z,1.30
2019-05-15T05:48:06.000Z,1.50
2019-05-15T05:48:38.662Z,1.30
2019-05-15T05:49:12.392Z,1.70
2019-05-15T05:49:45.067Z,1.27
2019-05-15T05:50:38.341Z,1.60
2019-05-15T05:51:10.474Z,1.52
2019-05-15T05:51:43.412Z,1.35
2019-05-15T05:52:18.175Z,1.50
2019-05-15T05:52:50.481Z,1.40
2019-05-15T05:53:23.118Z,1.52
2019-05-15T05:53:56.096Z,1.40
2019-05-15T05:54:28.938Z,1.30
2019-05-15T05:55:01.745Z,1.45
2019-05-15T05:55:34.888Z,1.50
2019-05-15T05:56:08.942Z,1.50
2019-05-15T05:56:41.782Z,1.55
2019-05-15T05:57:14.798Z,1.35
2019-05-15T05:57:48.713Z,1.50
2019-05-15T05:58:21.397Z,1.90
2019-05-15T05:58:54.772Z,1.50
2019-05-15T05:59:28.452Z,1.70
2019-05-15T06:00:01.579Z,1.65
2019-05-15T06:00:42.126Z,1.85
2019-05-15T06:01:15.207Z,1.70
2019-05-15T06:01:48.553Z,1.42
2019-05-15T06:02:21.724Z,1.15
2019-05-15T06:02:54.371Z,1.50
2019-05-15T06:03:28.045Z,1.12
2019-05-15T06:04:00.876Z,1.10
2019-05-15T06:04:33.539Z,1.35
2019-05-15T06:05:07.924Z,1.40
2019-05-15T06:05:40.658Z,1.47
2019-05-15T06:06:13.816Z,1.65
2019-05-15T06:06:48.633Z,1.60
2019-05-15T06:07:21.244Z,1.17
2019-05-15T06:07:54.264Z,1.82
2019-05-15T06:08:28.302Z,1.45
2019-05-15T06:09:01.459Z,1.20
2019-05-15T06:09:34.112Z,1.50
2019-05-15T06:10:08.923Z,1.50
2019-05-15T06:10:42.105Z,1.25
2019-05-15T06:11:14.748Z,1.22
2019-05-15T06:11:48.848Z,1.47
2019-05-15T06:12:21.934Z,1.20
2019-05-15T06:12:54.574Z,1.32
2019-05-15T06:13:29.070Z,1.37
2019-05-15T06:14:01.691Z,1.25
2019-05-15T06:14:34.342Z,1.12
2019-05-15T06:15:08.801Z,1.10
2019-05-15T06:15:42.126Z,1.25
2019-05-15T06:16:15.104Z,1.50
2019-05-15T06:16:48.312Z,1.10
2019-05-15T06:17:21.024Z,1.80
2019-05-15T06:17:53.654Z,1.40
2019-05-15T06:18:28.155Z,1.45
2019-05-15T06:19:00.717Z,1.50
2019-05-15T06:19:33.359Z,1.40
2019-05-15T06:20:08.107Z,1.42
2019-05-15T06:20:40.571Z,1.37
2019-05-15T06:21:13.627Z,1.30
2019-05-15T06:21:54.572Z,1.20
2019-05-15T06:22:21.120Z,1.60
2019-05-15T06:22:53.788Z,1.55
2019-05-15T06:23:33.594Z,1.52
2019-05-15T06:24:04.578Z,1.25
2019-05-15T06:24:37.817Z,1.80
2019-05-15T06:25:11.585Z,1.47
2019-05-15T06:25:44.912Z,1.42
2019-05-15T06:26:19.624Z,1.20
2019-05-15T06:26:52.227Z,1.32
2019-05-15T06:27:24.890Z,1.50
2019-05-15T06:27:58.343Z,1.17
2019-05-15T06:28:31.132Z,1.27
2019-05-15T06:29:04.222Z,1.50
2019-05-15T06:29:37.815Z,1.02
2019-05-15T06:30:18.592Z,1.40
2019-05-15T06:30:45.076Z,1.20
2019-05-15T06:31:18.966Z,1.27
2019-05-15T06:31:51.850Z,1.15
2019-05-15T06:32:24.473Z,1.40
2019-05-15T06:33:08.280Z,1.52
2019-05-15T06:33:32.015Z,1.30
2019-05-15T06:34:04.955Z,1.35
2019-05-15T06:34:38.127Z,1.30
2019-05-15T06:35:11.394Z,1.35
2019-05-15T06:35:44.058Z,1.05
2019-05-15T06:36:18.011Z,1.20
2019-05-15T06:36:50.849Z,1.25
2019-05-15T06:37:23.525Z,1.60
2019-05-15T06:37:58.949Z,1.35
2019-05-15T06:38:31.273Z,1.30
2019-05-15T06:39:05.783Z,1.45
2019-05-15T06:39:39.208Z,1.27
2019-05-15T06:40:12.305Z,1.20
2019-05-15T06:40:44.942Z,1.30
2019-05-15T06:41:18.148Z,1.10
2019-05-15T06:41:51.091Z,1.15
2019-05-15T06:42:23.727Z,1.25
2019-05-15T06:42:59.141Z,1.20
2019-05-15T06:43:30.859Z,1.22
2019-05-15T06:44:03.764Z,1.12
2019-05-15T06:44:38.654Z,1.15
2019-05-15T06:45:11.233Z,1.12
2019-05-15T06:45:43.862Z,1.40
2019-05-15T06:46:18.694Z,1.20
2019-05-15T06:46:52.288Z,1.35
2019-05-15T06:47:25.330Z,1.30
2019-05-15T06:47:59.862Z,1.22
2019-05-15T06:48:32.414Z,1.52
2019-05-15T06:49:05.398Z,1.20
2019-05-15T06:49:38.423Z,1.12
2019-05-15T06:50:11.899Z,1.40
2019-05-15T06:50:44.952Z,1.42
2019-05-15T06:51:18.184Z,1.10
2019-05-15T06:51:51.435Z,1.30
2019-05-15T06:52:24.084Z,1.22
2019-05-15T06:52:58.702Z,1.20
2019-05-15T06:53:31.477Z,1.05
2019-05-15T06:54:04.220Z,1.12
2019-05-15T06:54:37.766Z,1.40
2019-05-15T06:55:10.627Z,1.10
2019-05-15T06:55:43.387Z,1.20
2019-05-15T06:56:18.567Z,1.00
2019-05-15T06:56:51.540Z,1.12
2019-05-15T06:57:24.198Z,1.40
2019-05-15T06:57:58.387Z,1.12
2019-05-15T06:58:31.274Z,1.12
2019-05-15T06:59:04.314Z,1.02
2019-05-15T06:59:38.885Z,1.20
2019-05-15T07:00:12.426Z,1.20
2019-05-15T07:00:45.407Z,1.27
2019-05-15T07:01:18.843Z,1.10
2019-05-15T07:01:51.869Z,1.05
2019-05-15T07:02:24.848Z,1.20
2019-05-15T07:02:58.307Z,1.12
2019-05-15T07:03:31.395Z,1.27
2019-05-15T07:04:04.370Z,1.30
2019-05-15T07:04:38.362Z,1.10
2019-05-15T07:05:11.527Z,1.25
2019-05-15T07:05:44.500Z,1.20
2019-05-15T07:06:18.187Z,1.47
2019-05-15T07:06:51.390Z,1.10
2019-05-15T07:07:24.022Z,1.35
2019-05-15T07:07:58.479Z,1.12
2019-05-15T07:08:31.132Z,1.20
2019-05-15T07:09:05.544Z,1.20
2019-05-15T07:09:38.183Z,1.20
2019-05-15T07:10:11.216Z,1.00
2019-05-15T07:10:43.851Z,1.30
2019-05-15T07:11:18.921Z,1.15
2019-05-15T07:11:50.977Z,1.07
2019-05-15T07:12:23.956Z,1.30
2019-05-15T07:12:58.511Z,1.25
2019-05-15T07:13:31.676Z,1.27
2019-05-15T07:14:04.856Z,1.12
2019-05-15T07:14:38.065Z,1.30
2019-05-15T07:15:11.255Z,1.50
2019-05-15T07:15:43.907Z,1.40
2019-05-15T07:16:18.199Z,1.20
2019-05-15T07:16:51.155Z,1.12
2019-05-15T07:17:24.143Z,1.60
2019-05-15T07:17:58.030Z,1.50
2019-05-15T07:18:30.859Z,1.10
2019-05-15T07:19:03.512Z,1.32
2019-05-15T07:19:38.923Z,1.17
2019-05-15T07:20:11.415Z,1.10
2019-05-15T07:20:44.399Z,1.35
2019-05-15T07:21:20.251Z,1.30
2019-05-15T07:21:51.488Z,1.30
2019-05-15T07:22:24.152Z,1.20
2019-05-15T07:22:58.687Z,1.00
2019-05-15T07:23:31.276Z,1.15
2019-05-15T07:24:03.917Z,1.15
2019-05-15T07:24:38.366Z,1.17
2019-05-15T07:25:11.651Z,1.00
2019-05-15T07:25:44.332Z,1.17
2019-05-15T07:26:18.338Z,1.20